createdAt,value
2023-04-12T00:02:21.120Z,59.60
2023-04-12T00:04:55.326Z,59.42
2023-04-12T00:07:24.793Z,59.78
2023-04-12T00:09:51.838Z,59.94
2023-04-12T00:12:19.512Z,59.95
2023-04-12T00:14:46.707Z,59.52
2023-04-12T00:17:14.170Z,59.40
2023-04-12T00:19:44.814Z,59.43
2023-04-12T00:22:12.308Z,59.08
2023-04-12T00:24:41.774Z,59.12
2023-04-12T00:27:09.186Z,59.12
2023-04-12T00:29:36.229Z,58.95
2023-04-12T00:32:05.553Z,59.01
2023-04-12T00:34:32.457Z,58.82
2023-04-12T00:37:01.250Z,58.58
2023-04-12T00:39:28.241Z,58.71
2023-04-12T00:41:57.105Z,58.52
2023-04-12T00:44:24.186Z,58.69
2023-04-12T00:46:51.816Z,58.53
2023-04-12T00:49:18.967Z,58.48
2023-04-12T00:51:46.636Z,58.63
2023-04-12T00:54:14.194Z,58.67
2023-04-12T00:56:41.726Z,58.55
2023-04-12T00:59:10.372Z,58.65
2023-04-12T01:01:41.125Z,58.71
2023-04-12T01:04:09.357Z,58.63
2023-04-12T01:06:50.197Z,59.16
2023-04-12T01:09:23.912Z,58.88
2023-04-12T01:12:02.382Z,59.01
2023-04-12T01:14:39.857Z,58.77
2023-04-12T01:17:14.270Z,58.76
2023-04-12T01:19:57.925Z,58.90
2023-04-12T01:22:46.379Z,58.84
2023-04-12T01:25:32.493Z,58.86
2023-04-12T01:28:03.834Z,58.67
2023-04-12T01:30:32.884Z,58.93
2023-04-12T01:33:03.551Z,58.83
2023-04-12T01:35:33.951Z,58.93
2023-04-12T01:38:03.270Z,59.09
2023-04-12T01:40:31.417Z,59.11
2023-04-12T01:43:07.591Z,59.27
2023-04-12T01:45:34.801Z,59.22
2023-04-12T01:48:04.281Z,59.39
2023-04-12T01:50:39.958Z,59.71
2023-04-12T01:53:14.061Z,60.18
2023-04-12T01:55:45.939Z,60.35
2023-04-12T01:58:17.604Z,60.17
2023-04-12T02:00:46.077Z,60.33
2023-04-12T02:03:14.214Z,61.06
2023-04-12T02:05:41.777Z,60.83
2023-04-12T02:08:09.123Z,61.32
2023-04-12T02:10:39.735Z,61.19
2023-04-12T02:13:06.952Z,61.54
2023-04-12T02:15:37.229Z,61.47
2023-04-12T02:18:04.827Z,61.78
2023-04-12T02:20:32.371Z,62.00
2023-04-12T02:23:00.544Z,62.01
2023-04-12T02:25:27.669Z,61.85
2023-04-12T02:27:55.024Z,61.57
2023-04-12T02:30:23.083Z,62.12
2023-04-12T02:32:53.336Z,61.83
2023-04-12T02:35:20.709Z,62.00
2023-04-12T02:37:48.574Z,62.72
2023-04-12T02:40:16.126Z,62.75
2023-04-12T02:42:44.021Z,63.12
2023-04-12T02:45:11.886Z,62.30
2023-04-12T02:47:40.794Z,62.82
2023-04-12T02:50:09.705Z,62.50
2023-04-12T02:52:36.746Z,62.45
2023-04-12T02:55:04.165Z,62.29
2023-04-12T02:57:31.380Z,62.58
2023-04-12T02:59:58.561Z,62.44
2023-04-12T03:02:26.284Z,62.88
2023-04-12T03:04:54.929Z,62.38
2023-04-12T03:07:23.814Z,62.42
2023-04-12T03:09:51.642Z,62.43
2023-04-12T03:12:19.054Z,62.34
2023-04-12T03:14:46.081Z,62.73
2023-04-12T03:17:13.421Z,62.33
2023-04-12T03:19:40.558Z,62.90
2023-04-12T03:22:07.880Z,62.71
2023-04-12T03:24:37.254Z,62.38
2023-04-12T03:27:05.697Z,62.60
2023-04-12T03:29:32.666Z,62.41
2023-04-12T03:32:00.041Z,62.82
2023-04-12T03:34:32.376Z,62.09
2023-04-12T03:37:01.052Z,62.70
2023-04-12T03:39:28.556Z,62.78
2023-04-12T03:41:57.176Z,62.60
2023-04-12T03:44:26.229Z,62.15
2023-04-12T03:46:54.100Z,62.16
2023-04-12T03:49:21.365Z,62.62
2023-04-12T03:51:51.000Z,62.64
2023-04-12T03:54:18.060Z,62.51
2023-04-12T03:56:46.393Z,62.04
2023-04-12T03:59:14.932Z,62.22
2023-04-12T04:01:43.440Z,62.19
2023-04-12T04:04:10.887Z,62.26
2023-04-12T04:06:38.835Z,61.98
2023-04-12T04:09:06.892Z,62.36
2023-04-12T04:11:34.152Z,61.69
2023-04-12T04:14:01.476Z,61.52
2023-04-12T04:16:31.010Z,61.82
2023-04-12T04:18:57.993Z,61.66
2023-04-12T04:21:26.569Z,62.26
2023-04-12T04:23:54.168Z,62.07
2023-04-12T04:26:33.439Z,61.65
2023-04-12T04:29:04.802Z,60.55
2023-04-12T04:31:36.625Z,59.33
2023-04-12T04:34:05.494Z,58.32
2023-04-12T04:36:35.441Z,58.24
2023-04-12T04:39:03.510Z,55.99
2023-04-12T04:41:34.427Z,52.70
2023-04-12T04:44:01.543Z,49.81
2023-04-12T04:46:30.561Z,47.13
2023-04-12T04:49:00.167Z,45.34
2023-04-12T04:51:27.603Z,44.53
2023-04-12T04:53:54.891Z,41.27
2023-04-12T04:56:23.369Z,41.36
2023-04-12T04:58:50.755Z,39.70
2023-04-12T05:01:18.186Z,39.65
2023-04-12T05:03:45.382Z,38.72
2023-04-12T05:06:14.090Z,37.49
2023-04-12T05:08:41.164Z,38.33
2023-04-12T05:11:08.838Z,38.33
2023-04-12T05:13:35.996Z,38.11
2023-04-12T05:16:08.121Z,35.25
2023-04-12T05:18:35.871Z,34.31
2023-04-12T05:21:04.002Z,35.04
2023-04-12T05:23:34.352Z,34.92
2023-04-12T05:26:01.849Z,37.91
2023-04-12T05:28:29.174Z,40.85
2023-04-12T05:30:56.793Z,43.92
2023-04-12T05:33:23.894Z,64.01
2023-04-12T05:35:51.157Z,54.83
2023-04-12T05:38:19.183Z,51.83
2023-04-12T05:40:50.062Z,50.92
2023-04-12T05:43:17.823Z,50.05
2023-04-12T05:45:47.644Z,48.32
2023-04-12T05:48:14.795Z,52.47
2023-04-12T05:50:42.342Z,53.25
2023-04-12T05:53:10.715Z,53.21
2023-04-12T05:55:38.327Z,51.76
2023-04-12T05:58:07.160Z,53.68
2023-04-12T06:00:37.048Z,52.82
2023-04-12T06:03:04.831Z,52.34
2023-04-12T06:05:34.341Z,53.96
2023-04-12T06:08:02.017Z,52.39
2023-04-12T06:10:29.448Z,53.83
2023-04-12T06:12:56.455Z,53.40
2023-04-12T06:15:25.344Z,57.69
2023-04-12T06:17:52.712Z,54.94
2023-04-12T06:20:20.519Z,55.65
2023-04-12T06:22:47.554Z,57.33
2023-04-12T06:25:16.496Z,57.53
2023-04-12T06:27:44.019Z,55.01
2023-04-12T06:30:12.179Z,53.22
2023-04-12T06:32:41.235Z,53.61
2023-04-12T06:35:08.905Z,56.60
2023-04-12T06:37:36.191Z,56.40
2023-04-12T06:40:03.939Z,56.66
2023-04-12T06:42:31.356Z,55.91
2023-04-12T06:44:58.715Z,55.04
2023-04-12T06:47:25.769Z,55.13
2023-04-12T06:49:56.797Z,55.29
2023-04-12T06:52:24.428Z,55.86
2023-04-12T06:54:51.659Z,55.30
2023-04-12T06:57:18.632Z,55.54
2023-04-12T06:59:45.944Z,55.55
2023-04-12T07:02:13.081Z,55.70
2023-04-12T07:04:40.604Z,55.76
2023-04-12T07:07:10.291Z,55.77
2023-04-12T07:09:37.503Z,55.49
2023-04-12T07:12:04.585Z,56.36
2023-04-12T07:14:31.977Z,55.21
2023-04-12T07:16:59.009Z,55.09
2023-04-12T07:19:26.621Z,55.05
2023-04-12T07:21:53.771Z,54.52
2023-04-12T07:24:22.612Z,53.73
2023-04-12T07:26:49.723Z,53.70
2023-04-12T07:29:17.426Z,53.29
2023-04-12T07:31:45.702Z,52.59
2023-04-12T07:34:13.202Z,52.05
2023-04-12T07:36:40.487Z,51.79
2023-04-12T07:39:11.946Z,51.69
2023-04-12T07:41:42.287Z,51.66
2023-04-12T07:44:09.598Z,51.32
2023-04-12T07:46:36.541Z,51.05
2023-04-12T07:49:04.342Z,51.06
2023-04-12T07:51:31.740Z,51.27
2023-04-12T07:53:59.510Z,50.18
2023-04-12T07:56:27.140Z,50.69
2023-04-12T07:58:56.436Z,50.60
2023-04-12T08:01:23.783Z,50.48
2023-04-12T08:03:51.933Z,50.21
2023-04-12T08:06:18.911Z,49.90
2023-04-12T08:08:46.418Z,50.01
2023-04-12T08:11:13.426Z,49.88
2023-04-12T08:13:40.847Z,50.28
2023-04-12T08:16:09.596Z,50.15
2023-04-12T08:18:37.090Z,50.35
2023-04-12T08:21:04.928Z,49.95
2023-04-12T08:23:32.314Z,50.67
2023-04-12T08:26:05.528Z,50.69
2023-04-12T08:28:33.536Z,49.53
2023-04-12T08:31:03.135Z,49.66
2023-04-12T08:33:31.968Z,49.45
2023-04-12T08:35:59.423Z,49.67
2023-04-12T08:38:41.426Z,49.64
2023-04-12T08:41:13.518Z,48.66
2023-04-12T08:43:45.706Z,49.15
2023-04-12T08:46:15.729Z,49.32
2023-04-12T08:48:47.245Z,48.76
2023-04-12T08:51:16.600Z,48.95
2023-04-12T08:53:44.401Z,47.49
2023-04-12T08:56:12.676Z,48.33
2023-04-12T08:58:41.564Z,48.13
2023-04-12T09:01:14.134Z,48.58
2023-04-12T09:03:42.638Z,48.00
2023-04-12T09:06:12.240Z,48.42
2023-04-12T09:08:52.149Z,48.74
2023-04-12T09:11:24.475Z,48.88
2023-04-12T09:13:52.076Z,49.44
2023-04-12T09:16:34.231Z,48.92
2023-04-12T09:19:03.216Z,48.76
2023-04-12T09:21:31.934Z,48.94
2023-04-12T09:24:03.878Z,49.04
2023-04-12T09:26:31.577Z,48.63
2023-04-12T09:28:58.928Z,49.03
2023-04-12T09:31:26.834Z,48.57
2023-04-12T09:34:06.783Z,48.60
2023-04-12T09:36:39.910Z,48.68
2023-04-12T09:39:08.145Z,48.96
2023-04-12T09:41:35.182Z,48.71
2023-04-12T09:44:03.932Z,48.97
2023-04-12T09:46:31.141Z,49.02
2023-04-12T09:49:00.276Z,49.24
2023-04-12T09:51:29.095Z,48.96
2023-04-12T09:54:00.717Z,48.86
2023-04-12T09:56:29.872Z,47.98
2023-04-12T09:59:02.565Z,47.70
2023-04-12T10:01:33.486Z,47.75
2023-04-12T10:04:02.673Z,47.55
2023-04-12T10:06:31.316Z,47.96
2023-04-12T10:09:04.372Z,47.26
2023-04-12T10:11:32.279Z,47.23
2023-04-12T10:14:02.297Z,46.70
2023-04-12T10:16:31.125Z,46.88
2023-04-12T10:19:01.849Z,47.22
2023-04-12T10:21:29.599Z,46.72
2023-04-12T10:23:57.682Z,46.76
2023-04-12T10:26:26.513Z,46.83
2023-04-12T10:29:08.380Z,47.02
2023-04-12T10:31:35.766Z,47.13
2023-04-12T10:34:03.294Z,46.82
2023-04-12T10:37:00.957Z,46.88
2023-04-12T10:39:40.232Z,46.54
2023-04-12T10:42:23.587Z,45.89
2023-04-12T10:44:52.278Z,46.05
2023-04-12T10:47:59.074Z,45.97
2023-04-12T10:50:28.190Z,45.31
2023-04-12T10:53:25.186Z,45.09
2023-04-12T10:55:53.065Z,44.37
2023-04-12T10:58:56.604Z,44.48
2023-04-12T11:01:24.852Z,44.67
2023-04-12T11:04:16.690Z,44.57
2023-04-12T11:06:59.607Z,44.44
2023-04-12T11:09:28.245Z,45.01
2023-04-12T11:12:11.473Z,44.02
2023-04-12T11:14:45.759Z,43.25
2023-04-12T11:17:26.222Z,43.44
2023-04-12T11:19:59.059Z,43.52
2023-04-12T11:22:29.119Z,42.96
2023-04-12T11:24:58.512Z,43.43
2023-04-12T11:27:27.500Z,43.04
2023-04-12T11:29:57.424Z,43.09
2023-04-12T11:32:27.066Z,43.24
2023-04-12T11:34:56.564Z,43.56
2023-04-12T11:37:26.893Z,43.95
2023-04-12T11:39:57.608Z,44.62
2023-04-12T11:42:26.366Z,44.66
2023-04-12T11:44:57.114Z,44.60
2023-04-12T11:47:28.300Z,44.84
2023-04-12T11:49:55.977Z,44.31
2023-04-12T11:52:30.188Z,44.25
2023-04-12T11:55:00.662Z,43.42
2023-04-12T11:57:29.279Z,43.68
2023-04-12T12:00:01.156Z,43.46
2023-04-12T12:02:40.696Z,43.11
2023-04-12T12:05:13.791Z,43.21
2023-04-12T12:07:41.366Z,43.03
2023-04-12T12:10:09.705Z,42.57
2023-04-12T12:12:37.059Z,42.42
2023-04-12T12:15:04.531Z,45.42
2023-04-12T12:17:36.727Z,44.97
2023-04-12T12:20:04.770Z,43.89
2023-04-12T12:22:32.117Z,43.27
2023-04-12T12:25:00.536Z,43.63
2023-04-12T12:27:35.566Z,42.60
2023-04-12T12:30:04.361Z,41.90
2023-04-12T12:32:37.416Z,43.72
2023-04-12T12:35:09.415Z,41.98
2023-04-12T12:37:36.941Z,41.71
2023-04-12T12:40:16.283Z,41.40
2023-04-12T12:42:48.702Z,40.83
2023-04-12T12:45:18.783Z,41.40
2023-04-12T12:47:52.084Z,41.67
2023-04-12T12:50:22.057Z,41.92
2023-04-12T12:52:52.324Z,40.87
2023-04-12T12:55:21.391Z,41.30
2023-04-12T12:58:02.060Z,41.46
2023-04-12T13:00:33.779Z,40.42
2023-04-12T13:03:04.253Z,40.64
2023-04-12T13:05:31.742Z,41.00
2023-04-12T13:07:59.060Z,40.98
2023-04-12T13:10:27.451Z,40.54
2023-04-12T13:12:54.673Z,41.29
2023-04-12T13:15:23.919Z,41.40
2023-04-12T13:17:53.099Z,41.57
2023-04-12T13:20:22.270Z,41.50
2023-04-12T13:22:50.268Z,41.48
2023-04-12T13:25:19.788Z,41.41
2023-04-12T13:27:47.785Z,40.88
2023-04-12T13:30:15.768Z,41.74
2023-04-12T13:32:44.816Z,42.03
2023-04-12T13:35:12.448Z,41.71
2023-04-12T13:37:42.090Z,41.98
2023-04-12T13:40:10.002Z,41.75
2023-04-12T13:42:37.368Z,41.96
2023-04-12T13:45:05.375Z,41.69
2023-04-12T13:47:33.835Z,41.83
2023-04-12T13:50:01.365Z,42.08
2023-04-12T13:52:28.689Z,42.36
2023-04-12T13:54:57.918Z,41.61
2023-04-12T13:57:25.253Z,41.45
2023-04-12T13:59:52.488Z,41.76
2023-04-12T14:02:19.919Z,41.16
2023-04-12T14:04:55.174Z,41.26
2023-04-12T14:07:22.867Z,40.54
2023-04-12T14:09:50.525Z,41.01
2023-04-12T14:12:19.050Z,40.92
2023-04-12T14:14:46.629Z,40.96
2023-04-12T14:17:13.875Z,41.23
2023-04-12T14:19:40.847Z,41.01
2023-04-12T14:22:08.407Z,41.15
2023-04-12T14:24:35.914Z,41.22
2023-04-12T14:27:04.604Z,41.23
2023-04-12T14:29:33.085Z,41.10
2023-04-12T14:32:00.218Z,41.30
2023-04-12T14:34:27.237Z,41.54
2023-04-12T14:36:56.361Z,41.74
2023-04-12T14:39:24.353Z,41.47
2023-04-12T14:41:51.948Z,42.03
2023-04-12T14:44:20.409Z,42.15
2023-04-12T14:46:49.938Z,41.75
2023-04-12T14:49:16.969Z,41.79
2023-04-12T14:51:44.217Z,41.49
2023-04-12T14:54:11.265Z,41.27
2023-04-12T14:56:45.888Z,41.75
2023-04-12T14:59:17.163Z,41.58
2023-04-12T15:01:44.929Z,41.47
2023-04-12T15:04:13.902Z,41.49
2023-04-12T15:06:44.830Z,41.54
2023-04-12T15:09:14.012Z,41.90
2023-04-12T15:11:47.050Z,41.97
2023-04-12T15:14:19.969Z,41.64
2023-04-12T15:16:49.204Z,41.99
2023-04-12T15:19:21.954Z,41.85
2023-04-12T15:21:51.168Z,41.72
2023-04-12T15:24:19.807Z,41.54
2023-04-12T15:26:48.305Z,41.22
2023-04-12T15:29:16.534Z,40.87
2023-04-12T15:31:44.397Z,41.09
2023-04-12T15:34:11.605Z,40.80
2023-04-12T15:36:41.122Z,40.78
2023-04-12T15:39:08.313Z,40.91
2023-04-12T15:41:38.020Z,40.39
2023-04-12T15:44:05.596Z,40.66
2023-04-12T15:46:32.862Z,40.54
2023-04-12T15:49:00.222Z,40.38
2023-04-12T15:51:28.189Z,40.48
2023-04-12T15:53:57.410Z,39.81
2023-04-12T15:56:25.519Z,39.82
2023-04-12T15:58:53.042Z,40.31
2023-04-12T16:01:20.528Z,40.57
2023-04-12T16:03:49.023Z,40.66
2023-04-12T16:06:20.482Z,40.96
2023-04-12T16:08:48.056Z,41.04
2023-04-12T16:11:18.508Z,41.28
2023-04-12T16:13:48.642Z,41.16
2023-04-12T16:16:17.834Z,41.24
2023-04-12T16:18:46.569Z,41.15
2023-04-12T16:21:16.871Z,41.40
2023-04-12T16:23:44.671Z,41.44
2023-04-12T16:26:13.243Z,41.93
2023-04-12T16:28:43.610Z,42.49
2023-04-12T16:31:11.211Z,42.59
2023-04-12T16:33:39.117Z,42.58
2023-04-12T16:36:07.217Z,42.81
2023-04-12T16:38:34.695Z,43.09
2023-04-12T16:41:02.393Z,43.35
2023-04-12T16:43:30.124Z,43.51
2023-04-12T16:46:07.252Z,43.75
2023-04-12T16:48:35.985Z,43.79
2023-04-12T16:51:03.834Z,43.64
2023-04-12T16:53:32.250Z,44.04
2023-04-12T16:56:02.543Z,44.12
2023-04-12T16:58:30.243Z,44.15
2023-04-12T17:01:01.044Z,44.40
2023-04-12T17:03:28.841Z,44.49
2023-04-12T17:05:56.938Z,44.83
2023-04-12T17:08:24.081Z,45.04
2023-04-12T17:10:51.592Z,45.06
2023-04-12T17:13:20.418Z,45.20
2023-04-12T17:15:48.525Z,45.84
2023-04-12T17:18:17.021Z,45.95
2023-04-12T17:20:44.871Z,46.11
2023-04-12T17:23:12.451Z,46.17
2023-04-12T17:25:40.628Z,47.01
2023-04-12T17:28:27.375Z,47.84
2023-04-12T17:30:56.589Z,48.54
2023-04-12T17:33:27.964Z,48.38
2023-04-12T17:35:58.210Z,48.69
2023-04-12T17:38:26.615Z,49.07
2023-04-12T17:40:55.827Z,48.93
2023-04-12T17:43:28.125Z,49.50
2023-04-12T17:45:55.615Z,49.24
2023-04-12T17:48:27.107Z,49.82
2023-04-12T17:50:55.214Z,49.54
2023-04-12T17:53:22.337Z,49.44
2023-04-12T17:55:50.837Z,49.81
2023-04-12T17:58:18.945Z,50.33
2023-04-12T18:00:51.292Z,50.28
2023-04-12T18:03:21.695Z,50.21
2023-04-12T18:05:51.085Z,50.02
2023-04-12T18:08:18.408Z,50.17
2023-04-12T18:10:46.663Z,50.04
2023-04-12T18:13:14.214Z,50.31
2023-04-12T18:15:42.094Z,50.49
2023-04-12T18:18:09.502Z,50.61
2023-04-12T18:20:37.141Z,50.80
2023-04-12T18:23:07.112Z,50.97
2023-04-12T18:25:34.647Z,51.28
2023-04-12T18:28:02.523Z,51.33
2023-04-12T18:30:30.863Z,51.49
2023-04-12T18:32:58.315Z,51.47
2023-04-12T18:35:25.939Z,51.32
2023-04-12T18:37:53.197Z,51.51
2023-04-12T18:40:23.407Z,52.12
2023-04-12T18:42:50.723Z,52.52
2023-04-12T18:45:19.984Z,52.94
2023-04-12T18:47:47.319Z,53.05
2023-04-12T18:50:16.086Z,53.54
2023-04-12T18:52:43.697Z,53.56
2023-04-12T18:55:11.616Z,53.94
2023-04-12T18:57:40.338Z,54.56
2023-04-12T19:00:14.379Z,54.50
2023-04-12T19:02:43.701Z,55.09
2023-04-12T19:05:11.685Z,54.55
2023-04-12T19:07:39.058Z,54.38
2023-04-12T19:10:08.500Z,54.29
2023-04-12T19:12:35.753Z,54.65
2023-04-12T19:15:07.184Z,55.04
2023-04-12T19:17:38.853Z,55.45
2023-04-12T19:20:07.725Z,55.46
2023-04-12T19:22:35.543Z,55.87
2023-04-12T19:25:02.920Z,55.22
2023-04-12T19:27:30.004Z,55.50
2023-04-12T19:29:58.238Z,55.89
2023-04-12T19:32:28.135Z,56.68
2023-04-12T19:34:56.155Z,56.51
2023-04-12T19:37:23.977Z,56.58
2023-04-12T19:39:51.593Z,56.80
2023-04-12T19:42:18.676Z,56.92
2023-04-12T19:44:46.256Z,56.54
2023-04-12T19:47:13.757Z,56.50
2023-04-12T19:49:43.735Z,56.71
2023-04-12T19:52:11.423Z,56.78
2023-04-12T19:54:40.032Z,56.89
2023-04-12T19:57:07.558Z,57.06
2023-04-12T19:59:36.750Z,57.21
2023-04-12T20:02:03.723Z,57.06
2023-04-12T20:04:34.244Z,57.25
2023-04-12T20:07:03.211Z,57.65
2023-04-12T20:09:30.525Z,57.73
2023-04-12T20:11:58.378Z,57.60
2023-04-12T20:14:27.208Z,57.57
2023-04-12T20:16:56.020Z,57.27
2023-04-12T20:19:23.062Z,57.59
2023-04-12T20:21:50.005Z,57.34
2023-04-12T20:24:18.720Z,57.78
2023-04-12T20:26:47.367Z,57.78
2023-04-12T20:29:15.002Z,58.77
2023-04-12T20:31:42.168Z,59.14
2023-04-12T20:34:09.483Z,59.43
2023-04-12T20:36:38.867Z,59.77
2023-04-12T20:39:06.153Z,59.38
2023-04-12T20:41:38.161Z,59.17
2023-04-12T20:44:05.526Z,58.82
2023-04-12T20:46:36.750Z,59.57
2023-04-12T20:49:06.639Z,59.86
2023-04-12T20:51:34.247Z,59.62
2023-04-12T20:54:02.235Z,60.37
2023-04-12T20:56:29.267Z,60.31
2023-04-12T20:59:00.667Z,60.80
2023-04-12T21:01:28.190Z,60.41
2023-04-12T21:03:59.601Z,60.38
2023-04-12T21:06:27.750Z,59.83
2023-04-12T21:08:55.150Z,60.00
2023-04-12T21:11:22.258Z,60.15
2023-04-12T21:13:49.681Z,60.08
2023-04-12T21:16:18.050Z,59.97
2023-04-12T21:18:45.621Z,59.78
2023-04-12T21:21:12.869Z,60.11
2023-04-12T21:23:41.034Z,60.01
2023-04-12T21:26:07.974Z,60.12
2023-04-12T21:28:35.341Z,60.62
2023-04-12T21:31:04.001Z,60.06
2023-04-12T21:33:33.787Z,59.78
2023-04-12T21:36:01.439Z,60.49
2023-04-12T21:38:28.702Z,60.23
2023-04-12T21:40:58.785Z,60.03
2023-04-12T21:43:26.188Z,61.03
2023-04-12T21:45:54.663Z,61.62
2023-04-12T21:48:22.124Z,61.28
2023-04-12T21:50:50.498Z,61.65
2023-04-12T21:53:17.733Z,61.95
2023-04-12T21:55:44.686Z,61.72
2023-04-12T21:58:12.018Z,61.79
2023-04-12T22:00:38.992Z,61.39
2023-04-12T22:03:06.565Z,61.49
2023-04-12T22:05:35.893Z,61.05
2023-04-12T22:08:04.781Z,61.49
2023-04-12T22:10:34.482Z,62.49
2023-04-12T22:13:02.514Z,62.17
2023-04-12T22:15:29.959Z,62.69
2023-04-12T22:17:57.593Z,62.49
2023-04-12T22:20:25.045Z,62.58
2023-04-12T22:22:52.354Z,62.05
2023-04-12T22:25:22.207Z,61.93
2023-04-12T22:27:49.567Z,61.86
2023-04-12T22:30:16.591Z,61.42
2023-04-12T22:32:43.947Z,61.57
2023-04-12T22:35:11.299Z,61.95
2023-04-12T22:37:39.165Z,62.22
2023-04-12T22:40:13.760Z,62.69
2023-04-12T22:42:48.957Z,63.48
2023-04-12T22:45:16.910Z,62.90
2023-04-12T22:47:44.671Z,63.04
2023-04-12T22:50:12.909Z,62.31
2023-04-12T22:52:40.522Z,63.01
2023-04-12T22:55:09.435Z,62.75
2023-04-12T22:57:37.142Z,62.84
2023-04-12T23:00:06.864Z,62.99
2023-04-12T23:02:34.819Z,62.73
2023-04-12T23:05:02.782Z,62.37
2023-04-12T23:07:31.238Z,62.99
2023-04-12T23:09:58.224Z,63.09
2023-04-12T23:12:25.514Z,63.63
2023-04-12T23:14:55.744Z,63.25
2023-04-12T23:17:26.554Z,64.01
2023-04-12T23:19:53.970Z,63.80
2023-04-12T23:22:48.569Z,64.16
2023-04-12T23:25:24.951Z,64.18
2023-04-12T23:27:52.284Z,64.77
2023-04-12T23:30:20.215Z,64.65
2023-04-12T23:32:49.133Z,65.17
2023-04-12T23:35:16.323Z,65.15
2023-04-12T23:37:43.443Z,65.09
2023-04-12T23:40:14.717Z,64.92
2023-04-12T23:42:43.443Z,64.84
2023-04-12T23:45:12.049Z,65.09
2023-04-12T23:47:40.599Z,65.13
2023-04-12T23:50:09.959Z,64.90
2023-04-12T23:52:37.175Z,64.89
2023-04-12T23:55:04.946Z,65.17
2023-04-12T23:57:32.396Z,65.02
2023-04-12T23:59:59.506Z,65.24
